createdAt,value
2018-03-28T00:04:22.000Z,17.2
2018-03-28T00:14:22.000Z,17.1
2018-03-28T00:24:22.000Z,17.1
2018-03-28T00:34:22.000Z,17.1
2018-03-28T00:44:22.000Z,16.9
2018-03-28T00:54:22.000Z,16.9
2018-03-28T01:04:22.000Z,16.7
2018-03-28T01:14:22.000Z,16.8
2018-03-28T01:24:22.000Z,16.6
2018-03-28T01:34:22.000Z,16.7
2018-03-28T01:44:22.000Z,16.8
2018-03-28T01:54:22.000Z,16.5
2018-03-28T02:04:22.000Z,16.6
2018-03-28T02:14:22.000Z,16.5
2018-03-28T02:24:22.000Z,16.4
2018-03-28T02:34:22.000Z,16.6
2018-03-28T02:44:22.000Z,16.4
2018-03-28T02:54:22.000Z,16.3
2018-03-28T03:04:22.000Z,16.3
2018-03-28T03:14:22.000Z,16.4
2018-03-28T03:24:22.000Z,16.3
2018-03-28T03:34:22.000Z,16.2
2018-03-28T03:44:22.000Z,16.2
2018-03-28T03:54:22.000Z,16.2
2018-03-28T04:04:22.000Z,16.2
2018-03-28T04:14:22.000Z,16.1
2018-03-28T04:24:22.000Z,16.2
2018-03-28T04:34:22.000Z,16.4
2018-03-28T04:44:22.000Z,16.2
2018-03-28T04:54:23.000Z,16.2
2018-03-28T05:04:23.000Z,16.2
2018-03-28T05:14:23.000Z,16
2018-03-28T05:24:23.000Z,16.1
2018-03-28T05:34:23.000Z,16
2018-03-28T05:44:23.000Z,16.9
2018-03-28T05:44:29.000Z,17.4
2018-03-28T05:54:29.000Z,17.4
2018-03-28T06:04:29.000Z,18
2018-03-28T06:14:29.000Z,18.2
2018-03-28T06:24:29.000Z,18.3
2018-03-28T06:34:29.000Z,18.4
2018-03-28T06:44:30.000Z,18.6
2018-03-28T06:54:30.000Z,18.6
2018-03-28T07:04:30.000Z,18.6
2018-03-28T07:14:30.000Z,18.6
2018-03-28T07:24:30.000Z,18.6
2018-03-28T07:34:30.000Z,18.8
2018-03-28T07:44:30.000Z,18.8
2018-03-28T07:54:30.000Z,18.9
2018-03-28T08:04:30.000Z,18.9
2018-03-28T08:14:30.000Z,18.9
2018-03-28T08:24:30.000Z,18.7
2018-03-28T08:34:30.000Z,18.9
2018-03-28T08:44:30.000Z,19
2018-03-28T08:54:30.000Z,19
2018-03-28T09:04:30.000Z,18.9
2018-03-28T09:14:30.000Z,19
2018-03-28T09:24:30.000Z,19.1
2018-03-28T09:34:30.000Z,19.1
2018-03-28T09:44:30.000Z,19.1
2018-03-28T09:54:30.000Z,19.1
2018-03-28T10:04:30.000Z,19.1
2018-03-28T10:14:30.000Z,19.1
2018-03-28T10:24:30.000Z,19.3
2018-03-28T10:34:30.000Z,19.2
2018-03-28T10:44:30.000Z,19.3
2018-03-28T10:54:30.000Z,19.2
2018-03-28T11:04:30.000Z,19.2
2018-03-28T11:14:30.000Z,19.2
2018-03-28T11:24:30.000Z,19.3
2018-03-28T11:34:30.000Z,19.2
2018-03-28T11:44:30.000Z,19
2018-03-28T11:54:30.000Z,19.3
2018-03-28T12:04:30.000Z,19
2018-03-28T12:14:30.000Z,19.1
2018-03-28T12:24:30.000Z,19.1
2018-03-28T12:34:30.000Z,19.3
2018-03-28T12:44:30.000Z,19
2018-03-28T12:54:30.000Z,19.1
2018-03-28T13:04:30.000Z,19.2
2018-03-28T13:14:30.000Z,19.1
2018-03-28T13:24:30.000Z,19.2
2018-03-28T13:34:30.000Z,19.1
2018-03-28T13:44:31.000Z,19.1
2018-03-28T13:54:31.000Z,19.1
2018-03-28T14:04:31.000Z,19.1
2018-03-28T14:14:31.000Z,19.1
2018-03-28T14:24:31.000Z,19.2
2018-03-28T14:34:31.000Z,19.2
2018-03-28T14:44:31.000Z,19.1
2018-03-28T14:54:31.000Z,19
2018-03-28T15:04:31.000Z,19.2
2018-03-28T15:14:31.000Z,19.3
2018-03-28T15:24:31.000Z,19.2
2018-03-28T15:34:31.000Z,19.2
2018-03-28T15:54:31.000Z,19.2
2018-03-28T16:04:31.000Z,19.2
2018-03-28T16:14:31.000Z,19.2
2018-03-28T16:24:32.000Z,19.1
2018-03-28T16:34:31.000Z,19.3
2018-03-28T16:44:31.000Z,19.3
2018-03-28T16:54:31.000Z,19.3
2018-03-28T17:04:31.000Z,19.4
2018-03-28T17:14:31.000Z,19.3
2018-03-28T17:24:31.000Z,19.3
2018-03-28T17:34:31.000Z,19.3
2018-03-28T17:44:31.000Z,19.3
2018-03-28T17:54:31.000Z,19.3
2018-03-28T18:04:31.000Z,19.3
2018-03-28T18:14:31.000Z,19.4
2018-03-28T18:24:31.000Z,19.2
2018-03-28T18:34:31.000Z,19.2
2018-03-28T18:44:31.000Z,19.2
2018-03-28T18:54:31.000Z,19.3
2018-03-28T19:04:31.000Z,19.2
2018-03-28T19:14:31.000Z,19.1
2018-03-28T19:24:31.000Z,19.2
2018-03-28T19:34:31.000Z,19.2
2018-03-28T19:44:31.000Z,19.3
2018-03-28T19:54:31.000Z,19.3
2018-03-28T20:04:31.000Z,19.3
2018-03-28T20:14:31.000Z,19.3
2018-03-28T20:24:31.000Z,19.3
2018-03-28T20:34:32.000Z,18.8
2018-03-28T20:44:32.000Z,18
2018-03-28T20:54:32.000Z,17.5
2018-03-28T21:04:32.000Z,17.3
2018-03-28T21:14:32.000Z,17.1
2018-03-28T21:24:32.000Z,16.9
2018-03-28T21:34:32.000Z,16.9
2018-03-28T21:44:32.000Z,16.7
2018-03-28T21:54:32.000Z,16.6
2018-03-28T22:04:32.000Z,16.5
2018-03-28T22:14:32.000Z,16.5
2018-03-28T22:24:32.000Z,16.4
2018-03-28T22:34:32.000Z,16.3
2018-03-28T22:44:32.000Z,16.2
2018-03-28T22:54:32.000Z,16.1
2018-03-28T23:04:32.000Z,16.1
2018-03-28T23:14:32.000Z,16
2018-03-28T23:24:32.000Z,15.9
2018-03-28T23:34:32.000Z,15.9
2018-03-28T23:44:32.000Z,15.8
2018-03-28T23:54:32.000Z,15.7
